createdAt,value
2022-12-14T00:01:57.338Z,16.92
2022-12-14T00:22:03.101Z,15.32
2022-12-14T00:42:08.810Z,16.42
2022-12-14T01:02:14.737Z,14.33
2022-12-14T01:22:22.447Z,13.28
2022-12-14T01:42:28.270Z,14.65
2022-12-14T02:02:34.349Z,13.50
2022-12-14T02:22:39.950Z,13.85
2022-12-14T02:42:45.694Z,14.40
2022-12-14T03:02:51.465Z,13.51
2022-12-14T03:22:57.256Z,11.35
2022-12-14T03:43:03.085Z,13.79
2022-12-14T04:03:08.923Z,13.19
2022-12-14T04:23:14.640Z,13.04
2022-12-14T05:03:24.738Z,11.58
2022-12-14T05:23:40.823Z,15.99
2022-12-14T05:43:36.557Z,12.21
2022-12-14T06:03:42.305Z,10.33
2022-12-14T06:23:48.023Z,9.94
2022-12-14T06:43:53.840Z,10.03
2022-12-14T07:03:59.682Z,19.14
2022-12-14T07:24:05.377Z,11.26
2022-12-14T07:44:11.112Z,11.08
2022-12-14T08:04:16.904Z,11.03
2022-12-14T08:24:22.570Z,8.78
2022-12-14T08:44:28.320Z,8.45
2022-12-14T09:04:34.093Z,8.52
2022-12-14T09:24:40.955Z,8.79
2022-12-14T09:44:46.725Z,8.59
2022-12-14T10:04:52.455Z,9.58
2022-12-14T10:24:58.211Z,12.43
2022-12-14T10:45:31.512Z,9.81
2022-12-14T11:05:09.250Z,11.18
2022-12-14T11:25:15.004Z,12.22
2022-12-14T11:45:20.750Z,13.22
2022-12-14T12:05:26.538Z,12.41
2022-12-14T12:25:37.200Z,12.39
2022-12-14T12:45:37.961Z,12.82
2022-12-14T13:05:46.564Z,13.16
2022-12-14T13:25:48.952Z,16.56
2022-12-14T13:45:54.732Z,12.45
2022-12-14T14:06:00.658Z,12.68
2022-12-14T14:26:10.224Z,15.90
2022-12-14T14:46:11.742Z,15.33
2022-12-14T15:06:17.485Z,15.63
2022-12-14T15:26:23.208Z,18.23
2022-12-14T15:46:28.996Z,17.28
2022-12-14T16:06:34.810Z,17.75
2022-12-14T16:26:40.556Z,14.92
2022-12-14T16:46:46.456Z,16.01
2022-12-14T17:06:52.172Z,17.89
2022-12-14T17:26:57.919Z,16.61
2022-12-14T17:47:03.740Z,22.05
2022-12-14T18:07:09.551Z,19.39
2022-12-14T18:27:15.315Z,20.19
2022-12-14T18:47:41.319Z,20.97
2022-12-14T19:07:26.468Z,21.91
2022-12-14T19:28:11.357Z,21.42
2022-12-14T19:47:37.491Z,23.46
2022-12-14T20:07:43.988Z,31.39
2022-12-14T20:27:48.622Z,22.19
2022-12-14T20:47:54.346Z,24.90
2022-12-14T21:08:00.140Z,18.84
2022-12-14T21:28:05.862Z,21.43
2022-12-14T21:48:11.693Z,23.47
2022-12-14T22:08:17.464Z,26.87
2022-12-14T22:28:23.267Z,21.77
2022-12-14T22:48:28.981Z,20.96
2022-12-14T23:08:34.819Z,22.08
2022-12-14T23:28:40.621Z,22.71
2022-12-14T23:48:46.394Z,21.09
